Lafayette, IN (47904)

5:45 PM EDT on August 24, 2016 (GMT -0400)
Sequoya Dr. / Miami Elementary | | Change Station
Active Advisory: Tornado Watch

Elev 659 ft 40.39 °N, 86.87 °W | Updated 2 seconds ago

Mostly Cloudy
Mostly Cloudy
86.2 °F
Feels Like 99 °F
N
4.3
Wind Variable Wind from WNW
Gusts 4.9 mph

Today
High -- | Low -- °F
--% Chance of Precip.
Yesterday
High -- | Low -- °F
Precip. -- in
Pressure 29.94 in
Visibility 10.0 miles
Clouds Scattered Clouds 3800 ft
Mostly Cloudy 4500 ft
Heat Index 99 °F
Dew Point 78 °F
Humidity 77%
Rainfall 0.50 in
Snow Depth Not available.
7:07 AM 8:31 PM
Waning Gibbous, 53% visible
SPECI KLAF 242136Z 22013G22KT 10SM VCTS SCT038 BKN045 29/23 A2994 RMK AO2 LTG DSNT N-E T02890233
Pressure 29.94 in
Visibility 10.0 miles
Clouds Scattered Clouds 3800 ft
Mostly Cloudy 4500 ft
Heat Index 99 °F
Dew Point 78 °F
Humidity 77%
Rainfall 0.50 in
Snow Depth Not available.
7:07 AM 8:31 PM
Waning Gibbous, 53% visible
SPECI KLAF 242136Z 22013G22KT 10SM VCTS SCT038 BKN045 29/23 A2994 RMK AO2 LTG DSNT N-E T02890233

10-Day Weather Forecast

Almanac

Astronomy

Aug. 24, 2016 Rise Set
Actual Time
Civil Twilight
Nautical Twilight
Astronomical Twilight
Moon
Length of Visible Light
Length of Day
Tomorrow will be .
, % of the Moon is Illuminated

Today's Extremes

State Highs State Lows

Community

WunderPhotos

Upload Photos

1,934,722 photos uploaded!

WunderBlog® & News

Nearby

Air Quality

  Air Quality AQ Index Pollutant
Not available.

Snow Depth

Station Depth Elevation

Earthquake Activity

City Distance Mag. Time & Date
Minimum magnitude displayed is 2.5.

Coastal Water Temperatures

Place Temperature

Stations

Nearby Weather Stations

Station Location Temp. Windchill Dew Point Humidity Wind Precip. Elev Updated Type
                   

Watches & Warnings

Tornado Watch
Issued: 5:40 PM EDT Aug. 24, 2016 – National Weather Service

Tornado Watch 454 remains in effect until 900 PM EDT for the
following locations


In
. Indiana counties included are

Adams Allen Bartholomew
Blackford Boone Brown
Carroll Cass Clinton
Decatur Delaware Fayette
Franklin Fulton Grant
Hamilton Hancock Hendricks
Henry Howard Huntington
Jay Johnson Madison
Marion Miami Monroe
Montgomery Morgan Owen
Pulaski Putnam Randolph
rush Shelby Tippecanoe
Tipton Union Wabash
Wayne Wells white